createdAt,value
2017-01-10T00:00:59.674Z,0
2017-01-10T00:02:10.023Z,0
2017-01-10T00:03:20.768Z,0
2017-01-10T00:04:31.499Z,0
2017-01-10T00:05:42.228Z,0
2017-01-10T00:06:52.577Z,0
2017-01-10T00:08:03.323Z,0
2017-01-10T00:09:13.676Z,0
2017-01-10T00:10:24.417Z,0
2017-01-10T00:11:34.773Z,0
2017-01-10T00:12:45.514Z,0
2017-01-10T00:13:56.257Z,0
2017-01-10T00:15:06.994Z,0
2017-01-10T00:16:17.349Z,0
2017-01-10T00:17:28.087Z,0
2017-01-10T00:18:38.419Z,0
2017-01-10T00:19:49.173Z,0
2017-01-10T00:20:59.525Z,0
2017-01-10T00:22:09.900Z,0
2017-01-10T00:23:20.254Z,0
2017-01-10T00:24:30.986Z,0
2017-01-10T00:25:41.732Z,0
2017-01-10T00:26:51.683Z,0
2017-01-10T00:28:02.024Z,0
2017-01-10T00:29:12.363Z,0
2017-01-10T00:30:23.103Z,0
2017-01-10T00:31:33.059Z,0
2017-01-10T00:32:43.787Z,0
2017-01-10T00:33:54.129Z,0
2017-01-10T00:35:04.865Z,0
2017-01-10T00:36:15.615Z,0
2017-01-10T00:37:26.345Z,0
2017-01-10T00:38:36.695Z,0
2017-01-10T00:39:47.041Z,0
2017-01-10T00:40:57.772Z,0
2017-01-10T00:42:08.511Z,0
2017-01-10T00:43:19.258Z,0
2017-01-10T00:44:29.214Z,0
2017-01-10T00:45:39.571Z,0
2017-01-10T00:46:50.305Z,0
2017-01-10T00:48:01.030Z,0
2017-01-10T00:49:11.774Z,0
2017-01-10T00:50:22.126Z,0
2017-01-10T00:51:32.482Z,0
2017-01-10T00:52:43.238Z,0
2017-01-10T00:53:53.601Z,0
2017-01-10T00:55:03.932Z,0
2017-01-10T00:56:14.269Z,0
2017-01-10T00:57:25.001Z,0
2017-01-10T00:58:35.742Z,0
2017-01-10T00:59:46.493Z,0
2017-01-10T01:00:57.231Z,0
2017-01-10T01:02:07.967Z,0
2017-01-10T01:03:18.705Z,0
2017-01-10T01:04:29.057Z,0
2017-01-10T01:05:39.798Z,0
2017-01-10T01:06:50.565Z,0
2017-01-10T01:08:01.306Z,0
2017-01-10T01:09:11.644Z,0
2017-01-10T01:10:22.426Z,0
2017-01-10T01:11:33.161Z,0
2017-01-10T01:12:43.100Z,0
2017-01-10T01:13:53.837Z,0
2017-01-10T01:15:04.612Z,0
2017-01-10T01:16:15.362Z,0
2017-01-10T01:17:26.104Z,0
2017-01-10T01:18:36.850Z,0
2017-01-10T01:19:47.583Z,0
2017-01-10T01:20:58.320Z,0
2017-01-10T01:22:09.063Z,0
2017-01-10T01:23:19.792Z,0
2017-01-10T01:24:30.152Z,0
2017-01-10T01:25:40.894Z,0
2017-01-10T01:26:51.236Z,0
2017-01-10T01:28:01.975Z,0
2017-01-10T01:29:12.713Z,0
2017-01-10T01:30:23.451Z,0
2017-01-10T01:31:34.189Z,0
2017-01-10T01:32:44.921Z,0
2017-01-10T01:33:55.249Z,0
2017-01-10T01:35:05.580Z,0
2017-01-10T01:36:15.932Z,0
2017-01-10T01:37:26.650Z,0
2017-01-10T01:38:37.406Z,0
2017-01-10T01:39:48.134Z,0
2017-01-10T01:40:58.864Z,0
2017-01-10T01:42:09.200Z,0
2017-01-10T01:43:19.151Z,0
2017-01-10T01:44:29.914Z,0
2017-01-10T01:45:40.652Z,0
2017-01-10T01:46:51.658Z,0
2017-01-10T01:48:01.999Z,0
2017-01-10T01:49:11.936Z,0
2017-01-10T01:50:22.283Z,0
2017-01-10T01:51:33.014Z,0
2017-01-10T01:52:43.760Z,0
2017-01-10T01:53:54.508Z,0
2017-01-10T01:55:05.243Z,0
2017-01-10T01:56:16.035Z,0
2017-01-10T01:57:26.766Z,0
2017-01-10T01:58:37.504Z,0
2017-01-10T01:59:47.456Z,0
2017-01-10T02:00:58.235Z,0
2017-01-10T02:02:09.014Z,0
2017-01-10T02:03:19.757Z,0
2017-01-10T02:04:30.490Z,0
2017-01-10T02:05:41.237Z,0
2017-01-10T02:06:51.974Z,0
2017-01-10T02:08:02.718Z,0
2017-01-10T02:09:13.051Z,0
2017-01-10T02:10:23.801Z,0
2017-01-10T02:11:34.145Z,0
2017-01-10T02:12:44.894Z,0
2017-01-10T02:13:55.629Z,0
2017-01-10T02:15:06.369Z,0
2017-01-10T02:16:17.105Z,0
2017-01-10T02:17:27.447Z,0
2017-01-10T02:18:37.773Z,0
2017-01-10T02:19:48.501Z,0
2017-01-10T02:20:59.239Z,0
2017-01-10T02:22:09.978Z,0
2017-01-10T02:23:20.326Z,0
2017-01-10T02:24:31.073Z,0
2017-01-10T02:25:41.810Z,0
2017-01-10T02:26:52.147Z,0
2017-01-10T02:28:02.501Z,0
2017-01-10T02:29:13.243Z,0
2017-01-10T02:30:23.981Z,0
2017-01-10T02:31:34.713Z,0
2017-01-10T02:32:45.445Z,0
2017-01-10T02:33:56.176Z,0
2017-01-10T02:35:06.925Z,0
2017-01-10T02:36:17.655Z,0
2017-01-10T02:37:27.985Z,0
2017-01-10T02:38:38.330Z,0
2017-01-10T02:39:49.066Z,0
2017-01-10T02:40:59.408Z,0
2017-01-10T02:42:10.138Z,0
2017-01-10T02:43:20.484Z,0
2017-01-10T02:44:31.238Z,0
2017-01-10T02:45:41.975Z,0
2017-01-10T02:46:52.712Z,0
2017-01-10T02:48:03.468Z,0
2017-01-10T02:49:14.205Z,0
2017-01-10T02:50:25.183Z,0
2017-01-10T02:51:35.523Z,0
2017-01-10T02:52:45.864Z,0
2017-01-10T02:53:56.603Z,0
2017-01-10T02:55:07.348Z,0
2017-01-10T02:56:17.681Z,0
2017-01-10T02:57:28.427Z,0
2017-01-10T02:58:39.168Z,0
2017-01-10T02:59:49.908Z,0
2017-01-10T03:01:00.240Z,0
2017-01-10T03:02:10.188Z,0
2017-01-10T03:33:51.951Z,0
2017-01-10T03:35:02.700Z,0
2017-01-10T03:36:13.414Z,0
2017-01-10T03:37:23.749Z,0
2017-01-10T03:38:34.076Z,0
2017-01-10T03:39:44.813Z,0
2017-01-10T03:40:55.544Z,0
2017-01-10T03:42:06.272Z,0
2017-01-10T03:43:17.029Z,0
2017-01-10T03:44:27.365Z,0
2017-01-10T03:45:37.698Z,0
2017-01-10T03:46:48.434Z,0
2017-01-10T03:47:59.174Z,0
2017-01-10T03:49:09.927Z,0
2017-01-10T03:50:20.288Z,0
2017-01-10T03:51:31.040Z,0
2017-01-10T03:52:41.781Z,0
2017-01-10T03:53:52.513Z,0
2017-01-10T03:55:03.242Z,0
2017-01-10T03:56:13.974Z,0
2017-01-10T03:57:24.714Z,0
2017-01-10T03:58:35.468Z,0
2017-01-10T03:59:46.230Z,0
2017-01-10T04:01:41.376Z,0
2017-01-10T04:02:52.104Z,4
2017-01-10T04:04:02.838Z,0
2017-01-10T04:05:13.584Z,4
2017-01-10T04:06:23.922Z,4
2017-01-10T04:07:34.254Z,4
2017-01-10T04:08:44.594Z,4
2017-01-10T04:09:55.327Z,4
2017-01-10T04:11:06.061Z,4
2017-01-10T04:12:16.405Z,4
2017-01-10T04:13:26.753Z,4
2017-01-10T04:14:37.483Z,4
2017-01-10T04:15:48.225Z,4
2017-01-10T04:16:58.190Z,4
2017-01-10T04:18:08.925Z,4
2017-01-10T04:19:19.646Z,4
2017-01-10T04:20:29.977Z,4
2017-01-10T04:21:40.317Z,4
2017-01-10T04:22:50.657Z,4
2017-01-10T04:24:01.393Z,4
2017-01-10T04:25:11.340Z,4
2017-01-10T04:26:22.084Z,4
2017-01-10T04:27:32.817Z,4
2017-01-10T04:28:43.556Z,4
2017-01-10T04:29:54.285Z,4
2017-01-10T04:31:05.025Z,4
2017-01-10T04:32:15.749Z,4
2017-01-10T04:33:26.480Z,4
2017-01-10T04:34:37.207Z,4
2017-01-10T04:35:47.902Z,4
2017-01-10T04:36:58.639Z,4
2017-01-10T04:38:08.583Z,4
2017-01-10T04:39:19.349Z,4
2017-01-10T04:40:30.078Z,4
2017-01-10T04:41:40.841Z,4
2017-01-10T04:42:51.564Z,4
2017-01-10T04:44:02.311Z,4
2017-01-10T04:45:13.051Z,4
2017-01-10T04:46:23.389Z,4
2017-01-10T04:47:33.716Z,4
2017-01-10T04:48:44.049Z,4
2017-01-10T04:49:54.389Z,4
2017-01-10T04:51:04.752Z,4
2017-01-10T04:52:15.493Z,4
2017-01-10T04:53:25.846Z,4
2017-01-10T04:54:36.182Z,4
2017-01-10T04:55:46.533Z,4
2017-01-10T04:56:57.295Z,4
2017-01-10T04:58:08.011Z,4
2017-01-10T04:59:18.350Z,4
2017-01-10T05:00:28.687Z,4
2017-01-10T05:01:39.421Z,4
2017-01-10T05:02:49.780Z,4
2017-01-10T05:04:00.530Z,4
2017-01-10T05:05:11.273Z,4
2017-01-10T05:06:21.627Z,4
2017-01-10T05:07:31.961Z,4
2017-01-10T05:08:42.305Z,4
2017-01-10T05:09:53.045Z,4
2017-01-10T05:11:03.390Z,4
2017-01-10T05:12:13.731Z,4
2017-01-10T05:13:24.070Z,4
2017-01-10T05:14:34.805Z,4
2017-01-10T05:15:45.551Z,4
2017-01-10T05:16:56.286Z,4
2017-01-10T05:18:07.017Z,4
2017-01-10T05:19:17.364Z,4
2017-01-10T05:20:27.701Z,4
2017-01-10T05:21:38.463Z,4
2017-01-10T05:22:49.210Z,4
2017-01-10T05:23:59.955Z,4
2017-01-10T05:25:10.715Z,4
2017-01-10T05:26:21.455Z,4
2017-01-10T05:27:32.176Z,4
2017-01-10T05:28:42.930Z,4
2017-01-10T05:29:53.666Z,4
2017-01-10T05:31:04.407Z,4
2017-01-10T05:32:15.180Z,4
2017-01-10T05:33:25.916Z,4
2017-01-10T05:34:36.263Z,4
2017-01-10T05:35:46.996Z,4
2017-01-10T05:36:57.752Z,4
2017-01-10T05:38:08.490Z,4
2017-01-10T05:39:19.225Z,4
2017-01-10T05:40:29.951Z,4
2017-01-10T05:41:40.294Z,4
2017-01-10T05:42:50.632Z,4
2017-01-10T05:44:01.003Z,4
2017-01-10T05:45:11.341Z,4
2017-01-10T05:46:22.078Z,4
2017-01-10T05:47:32.427Z,4
2017-01-10T05:48:43.164Z,4
2017-01-10T05:49:53.909Z,4
2017-01-10T05:51:04.671Z,4
2017-01-10T05:52:15.396Z,4
2017-01-10T05:53:26.141Z,4
2017-01-10T05:54:36.881Z,4
2017-01-10T05:55:47.215Z,4
2017-01-10T05:56:57.946Z,4
2017-01-10T05:58:08.671Z,4
2017-01-10T05:59:19.012Z,4
2017-01-10T06:00:29.783Z,4
2017-01-10T06:01:40.533Z,4
2017-01-10T06:02:51.271Z,4
2017-01-10T06:04:01.617Z,4
2017-01-10T06:05:12.354Z,4
2017-01-10T06:06:22.685Z,4
2017-01-10T06:07:33.032Z,4
2017-01-10T06:08:43.774Z,4
2017-01-10T06:09:54.115Z,0
2017-01-10T06:11:04.843Z,0
2017-01-10T06:12:15.189Z,0
2017-01-10T06:13:25.551Z,4
2017-01-10T06:14:36.299Z,4
2017-01-10T06:15:47.044Z,4
2017-01-10T06:16:57.409Z,4
2017-01-10T06:18:08.139Z,4
2017-01-10T06:19:18.866Z,4
2017-01-10T06:20:29.221Z,8
2017-01-10T06:21:39.962Z,8
2017-01-10T06:22:50.690Z,8
2017-01-10T06:24:01.416Z,8
2017-01-10T06:25:12.163Z,8
2017-01-10T06:26:22.903Z,12
2017-01-10T06:27:33.258Z,16
2017-01-10T06:28:43.604Z,16
2017-01-10T06:29:54.335Z,20
2017-01-10T06:31:05.071Z,20
2017-01-10T06:32:15.408Z,28
2017-01-10T06:33:25.743Z,28
2017-01-10T06:34:36.474Z,32
2017-01-10T06:35:47.215Z,40
2017-01-10T06:36:57.139Z,44
2017-01-10T06:38:07.884Z,48
2017-01-10T06:39:18.619Z,56
2017-01-10T06:40:29.354Z,64
2017-01-10T06:41:40.093Z,68
2017-01-10T06:42:50.829Z,76
2017-01-10T06:44:01.564Z,88
2017-01-10T06:45:12.347Z,96
2017-01-10T06:46:23.089Z,104
2017-01-10T06:47:33.444Z,112
2017-01-10T06:48:44.197Z,124
2017-01-10T06:49:54.935Z,136
2017-01-10T06:51:05.666Z,148
2017-01-10T06:52:16.399Z,160
2017-01-10T06:53:27.124Z,176
2017-01-10T06:54:37.852Z,192
2017-01-10T06:55:48.584Z,208
2017-01-10T06:56:58.931Z,224
2017-01-10T06:58:09.277Z,244
2017-01-10T06:59:20.039Z,264
2017-01-10T07:00:30.789Z,284
2017-01-10T07:01:40.745Z,304
2017-01-10T07:02:51.480Z,320
2017-01-10T07:04:01.816Z,332
2017-01-10T07:05:12.153Z,344
2017-01-10T07:06:22.888Z,368
2017-01-10T07:07:33.626Z,388
2017-01-10T07:08:43.965Z,412
2017-01-10T07:09:54.700Z,436
2017-01-10T07:11:05.429Z,460
2017-01-10T07:12:16.167Z,480
2017-01-10T07:13:26.919Z,504
2017-01-10T07:14:37.890Z,528
2017-01-10T07:15:48.238Z,552
2017-01-10T07:16:58.967Z,572
2017-01-10T07:18:09.942Z,600
2017-01-10T07:19:20.687Z,624
2017-01-10T07:20:31.415Z,644
2017-01-10T07:21:42.157Z,664
2017-01-10T07:22:52.530Z,684
2017-01-10T07:24:02.870Z,708
2017-01-10T07:25:13.610Z,736
2017-01-10T07:26:24.344Z,764
2017-01-10T07:27:35.070Z,796
2017-01-10T07:28:45.807Z,836
2017-01-10T07:29:56.577Z,860
2017-01-10T07:31:06.517Z,888
2017-01-10T07:32:17.260Z,912
2017-01-10T07:33:27.988Z,944
2017-01-10T07:34:38.337Z,968
2017-01-10T07:35:49.079Z,992
2017-01-10T07:36:59.844Z,1016
2017-01-10T07:38:10.582Z,1044
2017-01-10T07:39:21.323Z,1072
2017-01-10T07:40:31.689Z,1104
2017-01-10T07:41:41.621Z,1144
2017-01-10T07:42:51.973Z,1176
2017-01-10T07:44:02.708Z,1216
2017-01-10T07:45:13.442Z,1256
2017-01-10T07:46:24.184Z,1292
2017-01-10T07:47:34.921Z,1328
2017-01-10T07:48:45.661Z,1376
2017-01-10T07:49:55.999Z,1416
2017-01-10T07:51:06.379Z,1452
2017-01-10T07:52:17.126Z,1492
2017-01-10T07:53:27.880Z,1528
2017-01-10T07:54:38.220Z,1564
2017-01-10T07:55:48.953Z,1604
2017-01-10T07:56:59.300Z,1656
2017-01-10T07:58:10.036Z,1700
2017-01-10T07:59:20.398Z,1736
2017-01-10T08:00:31.130Z,1788
2017-01-10T08:01:41.067Z,1836
2017-01-10T08:02:51.015Z,1880
2017-01-10T08:04:01.769Z,1940
2017-01-10T08:05:12.501Z,2004
2017-01-10T08:06:23.247Z,2080
2017-01-10T08:07:34.005Z,2148
2017-01-10T08:08:43.953Z,2196
2017-01-10T08:09:54.713Z,2232
2017-01-10T08:11:05.088Z,2292
2017-01-10T08:12:15.825Z,2356
2017-01-10T08:13:26.569Z,2408
2017-01-10T08:14:37.305Z,2460
2017-01-10T08:15:47.645Z,2496
2017-01-10T08:16:58.015Z,2512
2017-01-10T08:18:08.357Z,2532
2017-01-10T08:19:19.088Z,2580
2017-01-10T08:20:29.842Z,2648
2017-01-10T08:21:40.173Z,2708
2017-01-10T08:22:50.512Z,2768
2017-01-10T08:24:00.841Z,2828
2017-01-10T08:25:11.186Z,2888
2017-01-10T08:26:22.160Z,2960
2017-01-10T08:27:32.497Z,3052
2017-01-10T08:28:43.238Z,3148
2017-01-10T08:29:53.598Z,3252
2017-01-10T08:31:03.936Z,3328
2017-01-10T08:32:14.282Z,3368
2017-01-10T08:33:25.016Z,3428
2017-01-10T08:34:35.777Z,3460
2017-01-10T08:35:45.713Z,3492
2017-01-10T08:36:55.270Z,3528
2017-01-10T08:38:06.001Z,3584
2017-01-10T08:39:16.752Z,3672
2017-01-10T08:40:27.480Z,3848
2017-01-10T08:41:38.215Z,3960
2017-01-10T08:42:48.964Z,4052
2017-01-10T08:43:59.318Z,4172
2017-01-10T08:45:09.663Z,4312
2017-01-10T08:46:20.402Z,5056
2017-01-10T08:47:30.736Z,5360
2017-01-10T08:48:41.485Z,5688
2017-01-10T08:49:51.433Z,5568
2017-01-10T08:51:02.168Z,5492
2017-01-10T08:52:12.499Z,5356
2017-01-10T08:53:22.842Z,5192
2017-01-10T08:54:33.205Z,5060
2017-01-10T08:55:44.028Z,5020
2017-01-10T08:56:54.784Z,4948
2017-01-10T08:58:05.124Z,4908
2017-01-10T08:59:15.479Z,4896
2017-01-10T09:00:26.208Z,4908
2017-01-10T09:01:36.963Z,4924
2017-01-10T09:02:47.709Z,4964
2017-01-10T09:03:58.056Z,4980
2017-01-10T09:05:08.798Z,5048
2017-01-10T09:06:19.142Z,5048
2017-01-10T09:07:29.888Z,5040
2017-01-10T09:08:40.625Z,5108
2017-01-10T09:09:51.356Z,5124
2017-01-10T09:11:02.089Z,5168
2017-01-10T09:12:12.828Z,5208
2017-01-10T09:13:23.161Z,5256
2017-01-10T09:14:33.889Z,5324
2017-01-10T09:15:44.620Z,5380
2017-01-10T09:16:55.367Z,5312
2017-01-10T09:18:05.314Z,5280
2017-01-10T09:19:15.656Z,5384
2017-01-10T09:20:26.389Z,5316
2017-01-10T09:21:36.358Z,5484
2017-01-10T09:22:47.119Z,5552
2017-01-10T09:23:57.853Z,4480
2017-01-10T09:25:08.593Z,5492
2017-01-10T09:26:19.339Z,5468
2017-01-10T09:27:29.706Z,5580
2017-01-10T09:28:40.442Z,5568
2017-01-10T09:29:51.188Z,5180
2017-01-10T09:31:01.163Z,5804
2017-01-10T09:32:11.898Z,5884
2017-01-10T09:33:22.654Z,5696
2017-01-10T09:34:33.399Z,5472
2017-01-10T09:35:44.133Z,5736
2017-01-10T09:36:54.475Z,5432
2017-01-10T09:38:05.228Z,3884
2017-01-10T09:39:15.966Z,5288
2017-01-10T09:40:26.307Z,6216
2017-01-10T09:41:36.649Z,5780
2017-01-10T09:42:47.401Z,5880
2017-01-10T09:43:58.150Z,5892
2017-01-10T09:45:08.532Z,5928
2017-01-10T09:46:19.273Z,4992
2017-01-10T09:47:30.000Z,6060
2017-01-10T09:48:40.733Z,6136
2017-01-10T09:49:51.491Z,5188
2017-01-10T09:51:02.237Z,4312
2017-01-10T09:52:12.584Z,4500
2017-01-10T09:53:23.334Z,4344
2017-01-10T09:54:34.069Z,4468
2017-01-10T09:55:44.012Z,4536
2017-01-10T09:56:54.748Z,4820
2017-01-10T09:58:05.486Z,4448
2017-01-10T09:59:16.247Z,3812
2017-01-10T10:00:26.986Z,4252
2017-01-10T10:01:37.352Z,3964
2017-01-10T10:02:47.304Z,3684
2017-01-10T10:03:57.647Z,3352
2017-01-10T10:05:07.994Z,3136
2017-01-10T10:06:18.326Z,3104
2017-01-10T10:07:28.649Z,3164
2017-01-10T10:08:39.386Z,3232
2017-01-10T10:09:50.127Z,3544
2017-01-10T10:11:00.083Z,3252
2017-01-10T10:12:10.819Z,3076
2017-01-10T10:13:21.554Z,3196
2017-01-10T10:14:32.328Z,3352
2017-01-10T10:15:43.060Z,3460
2017-01-10T10:16:55.246Z,3504
2017-01-10T10:18:09.217Z,3372
2017-01-10T10:19:21.988Z,3796
2017-01-10T10:20:32.426Z,3964
2017-01-10T10:21:42.769Z,4144
2017-01-10T10:22:53.522Z,4080
2017-01-10T10:24:04.641Z,4528
2017-01-10T10:25:15.378Z,5076
2017-01-10T10:26:26.151Z,4792
2017-01-10T10:27:36.090Z,4608
2017-01-10T10:28:46.828Z,4920
2017-01-10T10:29:57.744Z,5008
2017-01-10T10:31:08.492Z,5232
2017-01-10T10:32:19.326Z,5316
2017-01-10T10:33:29.682Z,5764
2017-01-10T10:34:40.448Z,6092
2017-01-10T10:35:50.804Z,7160
2017-01-10T10:37:00.908Z,7168
2017-01-10T10:38:10.895Z,8256
2017-01-10T10:39:21.718Z,8620
2017-01-10T10:40:32.609Z,8244
2017-01-10T10:41:43.674Z,8844
2017-01-10T10:42:54.893Z,9508
2017-01-10T10:44:05.342Z,9508
2017-01-10T10:45:16.136Z,10424
2017-01-10T10:46:26.979Z,10116
2017-01-10T10:47:37.359Z,10724
2017-01-10T10:48:47.344Z,10456
2017-01-10T10:49:58.119Z,10032
2017-01-10T10:51:08.929Z,9776
2017-01-10T10:52:19.285Z,9844
2017-01-10T10:53:30.061Z,10028
2017-01-10T10:54:40.938Z,9880
2017-01-10T10:55:51.884Z,9688
2017-01-10T10:57:02.247Z,7468
2017-01-10T10:58:12.662Z,9812
2017-01-10T10:59:23.422Z,10444
2017-01-10T11:00:34.278Z,9604
2017-01-10T11:01:45.012Z,10256
2017-01-10T11:02:55.884Z,10204
2017-01-10T11:04:06.318Z,10340
2017-01-10T11:05:16.660Z,10060
2017-01-10T11:06:27.054Z,9896
2017-01-10T11:07:37.811Z,10280
2017-01-10T11:08:48.577Z,10424
2017-01-10T11:09:58.916Z,10364
2017-01-10T11:11:09.263Z,10392
2017-01-10T11:12:20.039Z,10000
2017-01-10T11:13:30.790Z,10592
2017-01-10T11:14:41.554Z,10776
2017-01-10T11:15:52.299Z,10624
2017-01-10T11:17:02.648Z,10424
2017-01-10T11:18:13.420Z,10300
2017-01-10T11:19:24.162Z,10200
2017-01-10T11:20:34.914Z,9860
2017-01-10T11:21:45.664Z,9908
2017-01-10T11:22:56.000Z,9496
2017-01-10T11:24:06.739Z,9788
2017-01-10T11:25:17.495Z,9676
2017-01-10T11:26:28.227Z,9500
2017-01-10T11:27:38.989Z,9240
2017-01-10T11:28:49.329Z,8920
2017-01-10T11:29:59.293Z,9316
2017-01-10T11:31:10.104Z,9260
2017-01-10T11:32:20.848Z,9188
2017-01-10T11:33:31.579Z,9048
2017-01-10T11:34:42.317Z,9120
2017-01-10T11:35:52.657Z,9132
2017-01-10T11:37:03.416Z,9092
2017-01-10T11:38:14.162Z,8692
2017-01-10T11:39:24.903Z,7996
2017-01-10T11:40:35.653Z,7320
2017-01-10T11:41:45.982Z,6528
2017-01-10T11:42:56.334Z,5832
2017-01-10T11:44:07.081Z,5492
2017-01-10T11:45:17.027Z,5724
2017-01-10T11:46:27.768Z,4912
2017-01-10T11:47:38.114Z,4912
2017-01-10T11:48:48.868Z,5648
2017-01-10T11:49:59.614Z,6548
2017-01-10T11:51:09.970Z,6832
2017-01-10T11:52:20.349Z,6164
2017-01-10T11:53:31.099Z,7036
2017-01-10T11:54:41.082Z,7276
2017-01-10T11:55:51.432Z,7524
2017-01-10T11:57:02.184Z,7852
2017-01-10T11:58:12.536Z,8140
2017-01-10T11:59:22.473Z,8084
2017-01-10T12:00:33.219Z,8080
2017-01-10T12:01:43.959Z,8000
2017-01-10T12:02:54.710Z,7684
2017-01-10T12:04:05.471Z,7344
2017-01-10T12:05:15.819Z,6988
2017-01-10T12:06:26.578Z,6436
2017-01-10T12:07:37.321Z,6392
2017-01-10T12:08:48.065Z,7380
2017-01-10T12:09:58.434Z,7528
2017-01-10T12:11:08.793Z,7520
2017-01-10T12:12:18.781Z,7576
2017-01-10T12:13:29.553Z,7976
2017-01-10T12:14:39.896Z,6488
2017-01-10T12:15:49.847Z,7124
2017-01-10T12:17:00.196Z,7856
2017-01-10T12:18:10.959Z,8652
2017-01-10T12:19:21.729Z,7492
2017-01-10T12:20:32.476Z,7788
2017-01-10T12:21:43.219Z,6984
2017-01-10T12:22:53.593Z,6264
2017-01-10T12:24:04.364Z,6736
2017-01-10T12:25:14.732Z,6776
2017-01-10T12:26:25.478Z,5720
2017-01-10T12:27:36.214Z,5908
2017-01-10T12:28:46.565Z,7100
2017-01-10T12:29:57.324Z,7948
2017-01-10T12:31:08.074Z,7992
2017-01-10T12:32:18.820Z,9320
2017-01-10T12:33:29.551Z,10104
2017-01-10T12:34:40.315Z,8932
2017-01-10T12:35:51.292Z,8328
2017-01-10T12:37:02.063Z,9652
2017-01-10T12:38:12.822Z,9660
2017-01-10T12:39:22.789Z,8592
2017-01-10T12:40:33.777Z,9028
2017-01-10T12:41:44.520Z,9956
2017-01-10T12:42:54.883Z,10132
2017-01-10T12:44:05.630Z,14312
2017-01-10T12:45:16.361Z,14060
2017-01-10T12:46:27.107Z,13752
2017-01-10T12:47:37.855Z,14000
2017-01-10T12:48:48.624Z,14848
2017-01-10T12:49:58.974Z,13852
2017-01-10T12:51:09.341Z,14720
2017-01-10T12:52:20.099Z,11756
2017-01-10T12:53:30.868Z,9072
2017-01-10T12:54:41.651Z,8544
2017-01-10T12:55:52.422Z,9204
2017-01-10T12:57:03.187Z,9296
2017-01-10T12:58:13.994Z,11556
2017-01-10T12:59:24.357Z,13576
2017-01-10T13:00:35.143Z,9452
2017-01-10T13:01:45.905Z,13448
2017-01-10T13:02:56.689Z,12800
2017-01-10T13:04:07.451Z,11212
2017-01-10T13:05:17.410Z,8548
2017-01-10T13:06:28.176Z,7900
2017-01-10T13:07:38.526Z,7524
2017-01-10T13:08:48.868Z,7248
2017-01-10T13:09:59.633Z,7112
2017-01-10T13:11:10.385Z,6920
2017-01-10T13:12:21.117Z,6784
2017-01-10T13:13:31.483Z,6480
2017-01-10T13:14:41.442Z,6436
2017-01-10T13:15:52.180Z,6344
2017-01-10T13:17:02.525Z,6172
2017-01-10T13:18:13.256Z,6040
2017-01-10T13:19:23.999Z,5980
2017-01-10T13:20:34.373Z,5832
2017-01-10T13:21:45.147Z,5808
2017-01-10T13:22:55.094Z,5688
2017-01-10T13:24:05.842Z,5608
2017-01-10T13:25:16.580Z,5444
2017-01-10T13:26:26.574Z,5352
2017-01-10T13:27:37.300Z,5292
2017-01-10T13:28:48.067Z,5140
2017-01-10T13:29:58.811Z,5108
2017-01-10T13:31:09.570Z,4988
2017-01-10T13:32:20.313Z,4920
2017-01-10T13:33:30.674Z,4804
2017-01-10T13:34:41.438Z,4752
2017-01-10T13:35:52.179Z,4664
2017-01-10T13:37:02.928Z,4612
2017-01-10T13:38:13.298Z,4524
2017-01-10T13:39:23.652Z,4456
2017-01-10T13:40:33.987Z,4344
2017-01-10T13:41:44.730Z,4332
2017-01-10T13:42:55.489Z,4292
2017-01-10T13:44:06.229Z,3668
2017-01-10T13:45:16.568Z,3204
2017-01-10T13:46:26.913Z,3896
2017-01-10T13:47:37.287Z,3476
2017-01-10T13:48:48.023Z,3568
2017-01-10T13:49:58.762Z,3228
2017-01-10T13:51:09.159Z,2592
2017-01-10T13:52:19.897Z,2896
2017-01-10T13:53:29.869Z,2900
2017-01-10T13:54:40.622Z,2936
2017-01-10T13:55:51.345Z,2916
2017-01-10T13:57:02.090Z,2976
2017-01-10T13:58:12.430Z,3428
2017-01-10T13:59:22.778Z,2952
2017-01-10T14:00:33.112Z,2900
2017-01-10T14:01:43.838Z,2732
2017-01-10T14:02:54.169Z,2668
2017-01-10T14:04:04.530Z,2328
2017-01-10T14:05:15.278Z,1980
2017-01-10T14:06:25.627Z,1860
2017-01-10T14:07:35.959Z,1848
2017-01-10T14:08:46.331Z,1752
2017-01-10T14:09:57.079Z,1692
2017-01-10T14:11:07.425Z,1672
2017-01-10T14:12:18.209Z,1668
2017-01-10T14:13:28.956Z,1652
2017-01-10T14:14:39.709Z,1648
2017-01-10T14:15:50.046Z,1656
2017-01-10T14:17:00.796Z,1656
2017-01-10T14:18:11.541Z,1660
2017-01-10T14:19:22.524Z,1644
2017-01-10T14:20:32.879Z,1628
2017-01-10T14:21:43.616Z,1624
2017-01-10T14:22:54.368Z,1616
2017-01-10T14:24:05.126Z,1592
2017-01-10T14:25:15.908Z,1584
2017-01-10T14:26:25.855Z,1568
2017-01-10T14:27:36.216Z,1552
2017-01-10T14:28:46.545Z,1520
2017-01-10T14:29:57.272Z,1492
2017-01-10T14:31:08.010Z,1484
2017-01-10T14:32:17.965Z,1464
2017-01-10T14:33:28.317Z,1424
2017-01-10T14:34:38.668Z,1380
2017-01-10T14:35:49.414Z,1348
2017-01-10T14:37:00.148Z,1288
2017-01-10T14:38:10.894Z,1224
2017-01-10T14:39:21.639Z,1176
2017-01-10T14:40:31.984Z,1120
2017-01-10T14:41:42.725Z,1056
2017-01-10T14:42:53.061Z,992
2017-01-10T14:44:03.407Z,932
2017-01-10T14:45:14.158Z,880
2017-01-10T14:46:24.927Z,828
2017-01-10T14:47:35.663Z,772
2017-01-10T14:48:46.417Z,720
2017-01-10T14:49:56.825Z,672
2017-01-10T14:51:07.569Z,628
2017-01-10T14:52:17.922Z,600
2017-01-10T14:53:28.664Z,576
2017-01-10T14:54:39.416Z,552
2017-01-10T14:55:50.170Z,528
2017-01-10T14:57:00.538Z,500
2017-01-10T14:58:10.885Z,460
2017-01-10T14:59:21.627Z,428
2017-01-10T15:00:31.986Z,400
2017-01-10T15:01:42.713Z,376
2017-01-10T15:02:53.053Z,360
2017-01-10T15:04:03.796Z,336
2017-01-10T15:05:14.543Z,324
2017-01-10T15:06:25.300Z,308
2017-01-10T15:07:36.054Z,288
2017-01-10T15:08:46.913Z,276
2017-01-10T15:09:57.280Z,256
2017-01-10T15:11:07.636Z,240
2017-01-10T15:12:18.384Z,224
2017-01-10T15:13:29.139Z,208
2017-01-10T15:14:39.876Z,192
2017-01-10T15:15:50.223Z,176
2017-01-10T15:17:00.566Z,160
2017-01-10T15:18:11.338Z,148
2017-01-10T15:19:22.078Z,136
2017-01-10T15:20:32.820Z,128
2017-01-10T15:21:43.579Z,116
2017-01-10T15:22:54.325Z,108
2017-01-10T15:24:04.692Z,96
2017-01-10T15:25:15.452Z,88
2017-01-10T15:26:26.209Z,72
2017-01-10T15:27:36.957Z,64
2017-01-10T15:28:47.302Z,60
2017-01-10T15:29:57.248Z,48
2017-01-10T15:31:07.982Z,44
2017-01-10T15:32:18.330Z,36
2017-01-10T15:33:29.086Z,32
2017-01-10T15:34:39.038Z,28
2017-01-10T15:35:49.810Z,24
2017-01-10T15:37:00.556Z,20
2017-01-10T15:38:10.508Z,16
2017-01-10T15:39:20.849Z,12
2017-01-10T15:40:31.596Z,12
2017-01-10T15:41:42.352Z,12
2017-01-10T15:42:53.110Z,8
2017-01-10T15:44:03.873Z,8
2017-01-10T15:45:14.625Z,8
2017-01-10T15:46:25.350Z,4
2017-01-10T15:47:35.703Z,4
2017-01-10T15:48:46.514Z,4
2017-01-10T15:49:56.876Z,4
2017-01-10T15:51:07.631Z,4
2017-01-10T15:52:18.361Z,4
2017-01-10T15:53:28.710Z,0
2017-01-10T15:54:39.440Z,0
2017-01-10T15:55:50.189Z,0
2017-01-10T15:57:00.532Z,4
2017-01-10T15:58:10.891Z,4
2017-01-10T15:59:21.640Z,4
2017-01-10T16:00:32.383Z,4
2017-01-10T16:01:43.185Z,4
2017-01-10T16:02:53.952Z,4
2017-01-10T16:04:04.702Z,4
2017-01-10T16:05:15.519Z,4
2017-01-10T16:06:26.337Z,4
2017-01-10T16:07:37.153Z,4
2017-01-10T16:08:47.949Z,4
2017-01-10T16:09:58.717Z,4
2017-01-10T16:11:09.510Z,4
2017-01-10T16:12:20.346Z,4
2017-01-10T16:13:31.137Z,4
2017-01-10T16:14:41.942Z,4
2017-01-10T16:15:52.751Z,4
2017-01-10T16:17:03.538Z,4
2017-01-10T16:18:14.357Z,4
2017-01-10T16:19:25.132Z,4
2017-01-10T16:20:35.938Z,4
2017-01-10T16:21:46.315Z,4
2017-01-10T16:22:56.693Z,4
2017-01-10T16:24:07.485Z,4
2017-01-10T16:25:18.262Z,4
2017-01-10T16:26:29.044Z,4
2017-01-10T16:27:39.431Z,4
2017-01-10T16:28:50.205Z,4
2017-01-10T16:30:01.062Z,4
2017-01-10T16:31:11.871Z,4
2017-01-10T16:32:22.656Z,4
2017-01-10T16:33:33.056Z,4
2017-01-10T16:34:43.833Z,4
2017-01-10T16:35:54.220Z,4
2017-01-10T16:37:05.011Z,4
2017-01-10T16:38:15.827Z,4
2017-01-10T16:39:26.611Z,4
2017-01-10T16:40:37.395Z,4
2017-01-10T16:41:48.180Z,4
2017-01-10T16:42:58.963Z,4
2017-01-10T16:44:09.756Z,4
2017-01-10T16:45:20.545Z,4
2017-01-10T16:46:31.358Z,4
2017-01-10T16:47:41.742Z,4
2017-01-10T16:48:52.117Z,4
2017-01-10T16:50:02.898Z,4
2017-01-10T16:51:13.662Z,4
2017-01-10T16:52:24.463Z,4
2017-01-10T16:53:35.269Z,4
2017-01-10T16:54:46.075Z,4
2017-01-10T16:55:56.871Z,4
2017-01-10T16:57:07.681Z,4
2017-01-10T16:58:18.066Z,4